sensor_id;sensor_type;location;lat;lon;timestamp;temperature;humidity
9837;DHT22;4957;51.412;6.724;2023-07-29T00:01:58;21.70;99.00
9837;DHT22;4957;51.412;6.724;2023-07-29T00:04:24;21.70;99.00
9837;DHT22;4957;51.412;6.724;2023-07-29T00:06:50;21.60;99.10
9837;DHT22;4957;51.412;6.724;2023-07-29T00:09:15;21.60;99.20
9837;DHT22;4957;51.412;6.724;2023-07-29T00:11:41;21.60;99.30
9837;DHT22;4957;51.412;6.724;2023-07-29T00:14:07;21.50;99.40
9837;DHT22;4957;51.412;6.724;2023-07-29T00:16:32;21.50;99.50
9837;DHT22;4957;51.412;6.724;2023-07-29T00:18:58;21.50;99.50
9837;DHT22;4957;51.412;6.724;2023-07-29T00:21:23;21.50;99.50
9837;DHT22;4957;51.412;6.724;2023-07-29T00:23:49;21.50;99.50
9837;DHT22;4957;51.412;6.724;2023-07-29T00:26:15;21.40;99.50
9837;DHT22;4957;51.412;6.724;2023-07-29T00:28:41;21.40;99.50
9837;DHT22;4957;51.412;6.724;2023-07-29T00:31:06;21.30;99.80
9837;DHT22;4957;51.412;6.724;2023-07-29T00:33:32;21.30;99.80
9837;DHT22;4957;51.412;6.724;2023-07-29T00:35:57;21.30;99.90
9837;DHT22;4957;51.412;6.724;2023-07-29T00:38:27;21.20;99.90
9837;DHT22;4957;51.412;6.724;2023-07-29T00:40:53;21.20;99.90
9837;DHT22;4957;51.412;6.724;2023-07-29T00:43:18;21.30;99.90
9837;DHT22;4957;51.412;6.724;2023-07-29T00:45:44;21.20;99.90
9837;DHT22;4957;51.412;6.724;2023-07-29T00:48:10;21.20;99.90
9837;DHT22;4957;51.412;6.724;2023-07-29T00:50:36;21.20;99.90
9837;DHT22;4957;51.412;6.724;2023-07-29T00:53:02;21.20;99.90
9837;DHT22;4957;51.412;6.724;2023-07-29T00:55:28;21.20;99.90
9837;DHT22;4957;51.412;6.724;2023-07-29T00:58:15;21.20;99.90
9837;DHT22;4957;51.412;6.724;2023-07-29T01:00:41;21.20;99.90
9837;DHT22;4957;51.412;6.724;2023-07-29T01:03:08;21.20;99.90
9837;DHT22;4957;51.412;6.724;2023-07-29T01:05:42;21.20;99.90
9837;DHT22;4957;51.412;6.724;2023-07-29T01:08:31;21.20;99.90
9837;DHT22;4957;51.412;6.724;2023-07-29T01:11:08;21.20;99.90
9837;DHT22;4957;51.412;6.724;2023-07-29T01:13:45;21.10;99.90
9837;DHT22;4957;51.412;6.724;2023-07-29T01:16:26;21.10;99.90
9837;DHT22;4957;51.412;6.724;2023-07-29T01:18:55;21.10;99.90
9837;DHT22;4957;51.412;6.724;2023-07-29T01:21:21;21.10;99.90
9837;DHT22;4957;51.412;6.724;2023-07-29T01:23:47;21.10;99.90
9837;DHT22;4957;51.412;6.724;2023-07-29T01:26:13;21.10;99.90
9837;DHT22;4957;51.412;6.724;2023-07-29T01:28:39;21.10;99.90
9837;DHT22;4957;51.412;6.724;2023-07-29T01:31:16;21.10;99.90
9837;DHT22;4957;51.412;6.724;2023-07-29T01:34:22;21.10;99.90
9837;DHT22;4957;51.412;6.724;2023-07-29T01:36:51;21.10;99.90
9837;DHT22;4957;51.412;6.724;2023-07-29T01:39:21;21.10;99.90
9837;DHT22;4957;51.412;6.724;2023-07-29T01:41:48;21.10;99.90
9837;DHT22;4957;51.412;6.724;2023-07-29T01:44:15;21.10;99.90
9837;DHT22;4957;51.412;6.724;2023-07-29T01:46:41;21.10;99.90
9837;DHT22;4957;51.412;6.724;2023-07-29T01:49:07;21.00;99.90
9837;DHT22;4957;51.412;6.724;2023-07-29T01:51:32;21.00;99.90
9837;DHT22;4957;51.412;6.724;2023-07-29T01:53:58;21.00;99.90
9837;DHT22;4957;51.412;6.724;2023-07-29T01:56:25;21.10;99.90
9837;DHT22;4957;51.412;6.724;2023-07-29T01:58:50;21.00;99.90
9837;DHT22;4957;51.412;6.724;2023-07-29T02:01:16;21.00;99.90
9837;DHT22;4957;51.412;6.724;2023-07-29T02:03:42;21.00;99.90
9837;DHT22;4957;51.412;6.724;2023-07-29T02:06:08;21.00;99.90
9837;DHT22;4957;51.412;6.724;2023-07-29T02:08:33;21.00;99.90
9837;DHT22;4957;51.412;6.724;2023-07-29T02:10:59;21.00;99.90
9837;DHT22;4957;51.412;6.724;2023-07-29T02:13:25;21.00;99.90
9837;DHT22;4957;51.412;6.724;2023-07-29T02:15:50;21.00;99.90
9837;DHT22;4957;51.412;6.724;2023-07-29T02:18:17;21.00;99.90
9837;DHT22;4957;51.412;6.724;2023-07-29T02:20:42;21.00;99.90
9837;DHT22;4957;51.412;6.724;2023-07-29T02:23:15;21.00;99.90
9837;DHT22;4957;51.412;6.724;2023-07-29T02:25:41;21.00;99.90
9837;DHT22;4957;51.412;6.724;2023-07-29T02:28:07;21.00;99.90
9837;DHT22;4957;51.412;6.724;2023-07-29T02:30:32;21.00;99.90
9837;DHT22;4957;51.412;6.724;2023-07-29T02:32:58;21.00;99.90
9837;DHT22;4957;51.412;6.724;2023-07-29T02:35:25;21.00;99.90
9837;DHT22;4957;51.412;6.724;2023-07-29T02:37:50;21.00;99.90
9837;DHT22;4957;51.412;6.724;2023-07-29T02:40:16;21.00;99.90
9837;DHT22;4957;51.412;6.724;2023-07-29T02:42:41;21.00;99.90
9837;DHT22;4957;51.412;6.724;2023-07-29T02:45:07;20.90;99.90
9837;DHT22;4957;51.412;6.724;2023-07-29T02:47:37;21.00;99.90
9837;DHT22;4957;51.412;6.724;2023-07-29T02:50:02;21.00;99.90
9837;DHT22;4957;51.412;6.724;2023-07-29T02:52:28;21.00;99.90
9837;DHT22;4957;51.412;6.724;2023-07-29T02:54:54;20.90;99.90
9837;DHT22;4957;51.412;6.724;2023-07-29T02:57:20;20.90;99.90
9837;DHT22;4957;51.412;6.724;2023-07-29T02:59:46;20.90;99.90
9837;DHT22;4957;51.412;6.724;2023-07-29T03:02:11;20.90;99.90
9837;DHT22;4957;51.412;6.724;2023-07-29T03:04:37;20.90;99.90
9837;DHT22;4957;51.412;6.724;2023-07-29T03:07:03;20.90;99.90
9837;DHT22;4957;51.412;6.724;2023-07-29T03:09:29;20.90;99.90
9837;DHT22;4957;51.412;6.724;2023-07-29T03:11:54;20.90;99.90
9837;DHT22;4957;51.412;6.724;2023-07-29T03:14:21;20.90;99.90
9837;DHT22;4957;51.412;6.724;2023-07-29T03:16:46;20.90;99.90
9837;DHT22;4957;51.412;6.724;2023-07-29T03:19:12;20.90;99.90
9837;DHT22;4957;51.412;6.724;2023-07-29T03:21:38;20.90;99.90
9837;DHT22;4957;51.412;6.724;2023-07-29T03:24:04;20.90;99.90
9837;DHT22;4957;51.412;6.724;2023-07-29T03:26:29;20.90;99.90
9837;DHT22;4957;51.412;6.724;2023-07-29T03:28:55;20.80;99.90
9837;DHT22;4957;51.412;6.724;2023-07-29T03:31:20;20.90;99.90
9837;DHT22;4957;51.412;6.724;2023-07-29T03:33:46;20.80;99.90
9837;DHT22;4957;51.412;6.724;2023-07-29T03:36:12;20.80;99.90
9837;DHT22;4957;51.412;6.724;2023-07-29T03:38:37;20.80;99.90
9837;DHT22;4957;51.412;6.724;2023-07-29T03:41:07;20.80;99.90
9837;DHT22;4957;51.412;6.724;2023-07-29T03:43:34;20.80;99.90
9837;DHT22;4957;51.412;6.724;2023-07-29T03:46:00;20.80;99.90
9837;DHT22;4957;51.412;6.724;2023-07-29T03:48:26;20.80;99.90
9837;DHT22;4957;51.412;6.724;2023-07-29T03:50:51;20.80;99.90
9837;DHT22;4957;51.412;6.724;2023-07-29T03:53:17;20.80;99.90
9837;DHT22;4957;51.412;6.724;2023-07-29T03:55:43;20.70;99.90
9837;DHT22;4957;51.412;6.724;2023-07-29T03:58:09;20.80;99.90
9837;DHT22;4957;51.412;6.724;2023-07-29T04:00:35;20.70;99.90
9837;DHT22;4957;51.412;6.724;2023-07-29T04:03:00;20.70;99.90
9837;DHT22;4957;51.412;6.724;2023-07-29T04:05:26;20.70;99.90
9837;DHT22;4957;51.412;6.724;2023-07-29T04:07:52;20.70;99.90
9837;DHT22;4957;51.412;6.724;2023-07-29T04:10:19;20.70;99.90
9837;DHT22;4957;51.412;6.724;2023-07-29T04:12:45;20.70;99.90
9837;DHT22;4957;51.412;6.724;2023-07-29T04:15:10;20.70;99.90
9837;DHT22;4957;51.412;6.724;2023-07-29T04:17:36;20.60;99.90
9837;DHT22;4957;51.412;6.724;2023-07-29T04:20:02;20.60;99.90
9837;DHT22;4957;51.412;6.724;2023-07-29T04:22:28;20.60;99.90
9837;DHT22;4957;51.412;6.724;2023-07-29T04:24:53;20.60;99.90
9837;DHT22;4957;51.412;6.724;2023-07-29T04:27:19;20.60;99.90
9837;DHT22;4957;51.412;6.724;2023-07-29T04:29:45;20.60;99.90
9837;DHT22;4957;51.412;6.724;2023-07-29T04:32:10;20.60;99.90
9837;DHT22;4957;51.412;6.724;2023-07-29T04:34:36;20.50;99.90
9837;DHT22;4957;51.412;6.724;2023-07-29T04:37:02;20.50;99.90
9837;DHT22;4957;51.412;6.724;2023-07-29T04:39:27;20.50;99.90
9837;DHT22;4957;51.412;6.724;2023-07-29T04:41:53;20.50;99.90
9837;DHT22;4957;51.412;6.724;2023-07-29T04:44:18;20.50;99.90
9837;DHT22;4957;51.412;6.724;2023-07-29T04:46:44;20.50;99.90
9837;DHT22;4957;51.412;6.724;2023-07-29T04:49:10;20.40;99.90
9837;DHT22;4957;51.412;6.724;2023-07-29T04:51:35;20.40;99.90
9837;DHT22;4957;51.412;6.724;2023-07-29T04:54:02;20.40;99.90
9837;DHT22;4957;51.412;6.724;2023-07-29T04:56:28;20.40;99.90
9837;DHT22;4957;51.412;6.724;2023-07-29T04:58:53;20.40;99.90
9837;DHT22;4957;51.412;6.724;2023-07-29T05:01:19;20.40;99.90
9837;DHT22;4957;51.412;6.724;2023-07-29T05:03:45;20.40;99.90
9837;DHT22;4957;51.412;6.724;2023-07-29T05:06:11;20.40;99.90
9837;DHT22;4957;51.412;6.724;2023-07-29T05:08:36;20.30;99.90
9837;DHT22;4957;51.412;6.724;2023-07-29T05:11:02;20.40;99.90
9837;DHT22;4957;51.412;6.724;2023-07-29T05:13:28;20.40;99.90
9837;DHT22;4957;51.412;6.724;2023-07-29T05:15:53;20.30;99.90
9837;DHT22;4957;51.412;6.724;2023-07-29T05:18:19;20.40;99.90
9837;DHT22;4957;51.412;6.724;2023-07-29T05:20:46;20.30;99.90
9837;DHT22;4957;51.412;6.724;2023-07-29T05:23:12;20.40;99.90
9837;DHT22;4957;51.412;6.724;2023-07-29T05:25:38;20.40;99.90
9837;DHT22;4957;51.412;6.724;2023-07-29T05:28:03;20.30;99.90
9837;DHT22;4957;51.412;6.724;2023-07-29T05:30:30;20.40;99.90
9837;DHT22;4957;51.412;6.724;2023-07-29T05:33:05;20.40;99.90
9837;DHT22;4957;51.412;6.724;2023-07-29T05:35:33;20.40;99.90
9837;DHT22;4957;51.412;6.724;2023-07-29T05:37:59;20.40;99.90
9837;DHT22;4957;51.412;6.724;2023-07-29T05:40:25;20.40;99.90
9837;DHT22;4957;51.412;6.724;2023-07-29T05:42:50;20.40;99.90
9837;DHT22;4957;51.412;6.724;2023-07-29T05:45:16;20.50;99.90
9837;DHT22;4957;51.412;6.724;2023-07-29T05:47:42;20.50;99.90
9837;DHT22;4957;51.412;6.724;2023-07-29T05:50:08;20.50;99.90
9837;DHT22;4957;51.412;6.724;2023-07-29T05:52:34;20.50;99.90
9837;DHT22;4957;51.412;6.724;2023-07-29T05:55:00;20.50;99.90
9837;DHT22;4957;51.412;6.724;2023-07-29T05:57:26;20.40;99.90
9837;DHT22;4957;51.412;6.724;2023-07-29T05:59:52;20.50;99.90
9837;DHT22;4957;51.412;6.724;2023-07-29T06:02:17;20.50;99.90
9837;DHT22;4957;51.412;6.724;2023-07-29T06:04:43;20.50;99.90
9837;DHT22;4957;51.412;6.724;2023-07-29T06:07:09;20.50;99.90
9837;DHT22;4957;51.412;6.724;2023-07-29T06:09:34;20.50;99.90
9837;DHT22;4957;51.412;6.724;2023-07-29T06:12:00;20.40;99.90
9837;DHT22;4957;51.412;6.724;2023-07-29T06:14:26;20.50;99.90
9837;DHT22;4957;51.412;6.724;2023-07-29T06:16:52;20.50;99.90
9837;DHT22;4957;51.412;6.724;2023-07-29T06:19:19;20.50;99.90
9837;DHT22;4957;51.412;6.724;2023-07-29T06:21:45;20.50;99.90
9837;DHT22;4957;51.412;6.724;2023-07-29T06:24:10;20.50;99.90
9837;DHT22;4957;51.412;6.724;2023-07-29T06:26:36;20.50;99.90
9837;DHT22;4957;51.412;6.724;2023-07-29T06:29:02;20.50;99.90
9837;DHT22;4957;51.412;6.724;2023-07-29T06:31:27;20.50;99.90
9837;DHT22;4957;51.412;6.724;2023-07-29T06:33:53;20.60;99.90
9837;DHT22;4957;51.412;6.724;2023-07-29T06:36:20;20.60;99.90
9837;DHT22;4957;51.412;6.724;2023-07-29T06:38:45;20.60;99.90
9837;DHT22;4957;51.412;6.724;2023-07-29T06:41:11;20.60;99.90
9837;DHT22;4957;51.412;6.724;2023-07-29T06:43:37;20.60;99.90
9837;DHT22;4957;51.412;6.724;2023-07-29T06:46:02;20.70;99.90
9837;DHT22;4957;51.412;6.724;2023-07-29T06:48:28;20.70;99.90
9837;DHT22;4957;51.412;6.724;2023-07-29T06:50:54;20.70;99.90
9837;DHT22;4957;51.412;6.724;2023-07-29T06:53:20;20.80;99.90
9837;DHT22;4957;51.412;6.724;2023-07-29T06:55:46;20.80;99.90
9837;DHT22;4957;51.412;6.724;2023-07-29T06:58:12;20.90;99.90
9837;DHT22;4957;51.412;6.724;2023-07-29T07:00:38;20.90;99.90
9837;DHT22;4957;51.412;6.724;2023-07-29T07:03:03;21.00;99.90
9837;DHT22;4957;51.412;6.724;2023-07-29T07:05:29;21.00;99.90
9837;DHT22;4957;51.412;6.724;2023-07-29T07:07:55;21.10;99.90
9837;DHT22;4957;51.412;6.724;2023-07-29T07:10:20;21.20;99.90
9837;DHT22;4957;51.412;6.724;2023-07-29T07:12:46;21.30;99.90
9837;DHT22;4957;51.412;6.724;2023-07-29T07:15:12;21.40;99.90
9837;DHT22;4957;51.412;6.724;2023-07-29T07:17:37;21.50;99.90
9837;DHT22;4957;51.412;6.724;2023-07-29T07:20:04;21.50;99.90
9837;DHT22;4957;51.412;6.724;2023-07-29T07:22:30;21.60;99.90
9837;DHT22;4957;51.412;6.724;2023-07-29T07:24:56;21.70;99.90
9837;DHT22;4957;51.412;6.724;2023-07-29T07:27:21;21.80;99.90
9837;DHT22;4957;51.412;6.724;2023-07-29T07:29:47;21.80;99.90
9837;DHT22;4957;51.412;6.724;2023-07-29T07:32:13;22.00;99.90
9837;DHT22;4957;51.412;6.724;2023-07-29T07:34:38;22.00;99.90
9837;DHT22;4957;51.412;6.724;2023-07-29T07:37:04;22.10;99.90
9837;DHT22;4957;51.412;6.724;2023-07-29T07:39:31;22.20;99.90
9837;DHT22;4957;51.412;6.724;2023-07-29T07:41:57;22.30;99.90
9837;DHT22;4957;51.412;6.724;2023-07-29T07:44:22;22.50;99.90
9837;DHT22;4957;51.412;6.724;2023-07-29T07:46:48;22.60;99.90
9837;DHT22;4957;51.412;6.724;2023-07-29T07:49:14;22.70;99.90
9837;DHT22;4957;51.412;6.724;2023-07-29T07:51:39;22.90;99.90
9837;DHT22;4957;51.412;6.724;2023-07-29T07:54:05;23.10;99.90
9837;DHT22;4957;51.412;6.724;2023-07-29T07:56:31;23.20;99.90
9837;DHT22;4957;51.412;6.724;2023-07-29T07:58:57;23.40;99.90
9837;DHT22;4957;51.412;6.724;2023-07-29T08:01:22;23.60;99.90
9837;DHT22;4957;51.412;6.724;2023-07-29T08:03:48;23.70;99.90
9837;DHT22;4957;51.412;6.724;2023-07-29T08:06:14;23.90;99.90
9837;DHT22;4957;51.412;6.724;2023-07-29T08:08:39;24.00;99.90
9837;DHT22;4957;51.412;6.724;2023-07-29T08:11:05;24.20;99.90
9837;DHT22;4957;51.412;6.724;2023-07-29T08:13:31;24.40;99.90
9837;DHT22;4957;51.412;6.724;2023-07-29T08:15:56;24.60;99.90
9837;DHT22;4957;51.412;6.724;2023-07-29T08:18:22;24.80;99.90
9837;DHT22;4957;51.412;6.724;2023-07-29T08:20:55;25.00;99.90
9837;DHT22;4957;51.412;6.724;2023-07-29T08:23:26;25.20;99.90
9837;DHT22;4957;51.412;6.724;2023-07-29T08:26:00;25.50;99.90
9837;DHT22;4957;51.412;6.724;2023-07-29T08:28:31;25.70;99.10
9837;DHT22;4957;51.412;6.724;2023-07-29T08:30:57;25.90;98.70
9837;DHT22;4957;51.412;6.724;2023-07-29T08:33:23;26.10;98.30
9837;DHT22;4957;51.412;6.724;2023-07-29T08:35:49;26.30;97.70
9837;DHT22;4957;51.412;6.724;2023-07-29T08:38:15;26.60;97.00
9837;DHT22;4957;51.412;6.724;2023-07-29T08:40:49;26.80;96.30
9837;DHT22;4957;51.412;6.724;2023-07-29T08:43:18;26.90;95.70
9837;DHT22;4957;51.412;6.724;2023-07-29T08:45:45;27.20;95.20
9837;DHT22;4957;51.412;6.724;2023-07-29T08:48:12;27.30;94.60
9837;DHT22;4957;51.412;6.724;2023-07-29T08:50:41;27.50;93.90
9837;DHT22;4957;51.412;6.724;2023-07-29T08:53:08;27.70;93.30
9837;DHT22;4957;51.412;6.724;2023-07-29T08:55:34;27.90;92.60
9837;DHT22;4957;51.412;6.724;2023-07-29T08:58:00;28.00;91.90
9837;DHT22;4957;51.412;6.724;2023-07-29T09:00:27;28.20;91.30
9837;DHT22;4957;51.412;6.724;2023-07-29T09:02:53;28.30;90.60
9837;DHT22;4957;51.412;6.724;2023-07-29T09:05:20;28.40;90.00
9837;DHT22;4957;51.412;6.724;2023-07-29T09:07:47;28.50;88.60
9837;DHT22;4957;51.412;6.724;2023-07-29T09:10:13;28.60;88.20
9837;DHT22;4957;51.412;6.724;2023-07-29T09:12:40;28.60;87.40
9837;DHT22;4957;51.412;6.724;2023-07-29T09:15:06;28.60;86.60
9837;DHT22;4957;51.412;6.724;2023-07-29T09:17:33;28.60;86.00
9837;DHT22;4957;51.412;6.724;2023-07-29T09:19:59;28.60;85.00
9837;DHT22;4957;51.412;6.724;2023-07-29T09:22:27;28.60;84.30
9837;DHT22;4957;51.412;6.724;2023-07-29T09:24:53;28.60;83.70
9837;DHT22;4957;51.412;6.724;2023-07-29T09:27:29;28.60;83.40
9837;DHT22;4957;51.412;6.724;2023-07-29T09:29:57;28.60;82.70
9837;DHT22;4957;51.412;6.724;2023-07-29T09:32:24;28.50;82.90
9837;DHT22;4957;51.412;6.724;2023-07-29T09:34:51;28.50;82.40
9837;DHT22;4957;51.412;6.724;2023-07-29T09:37:25;28.50;82.50
9837;DHT22;4957;51.412;6.724;2023-07-29T09:39:51;28.50;81.90
9837;DHT22;4957;51.412;6.724;2023-07-29T09:42:18;28.40;82.40
9837;DHT22;4957;51.412;6.724;2023-07-29T09:44:44;28.40;82.50
9837;DHT22;4957;51.412;6.724;2023-07-29T09:47:19;28.40;82.30
9837;DHT22;4957;51.412;6.724;2023-07-29T09:49:45;28.30;81.90
9837;DHT22;4957;51.412;6.724;2023-07-29T09:52:10;28.30;82.30
9837;DHT22;4957;51.412;6.724;2023-07-29T09:54:36;28.40;82.70
9837;DHT22;4957;51.412;6.724;2023-07-29T09:57:02;28.40;82.90
9837;DHT22;4957;51.412;6.724;2023-07-29T09:59:28;28.50;82.40
9837;DHT22;4957;51.412;6.724;2023-07-29T10:01:58;28.60;81.70
9837;DHT22;4957;51.412;6.724;2023-07-29T10:04:25;28.70;81.80
9837;DHT22;4957;51.412;6.724;2023-07-29T10:06:51;28.80;81.40
9837;DHT22;4957;51.412;6.724;2023-07-29T10:09:18;29.00;80.80
9837;DHT22;4957;51.412;6.724;2023-07-29T10:11:45;29.10;80.40
9837;DHT22;4957;51.412;6.724;2023-07-29T10:14:12;29.30;79.50
9837;DHT22;4957;51.412;6.724;2023-07-29T10:16:40;29.50;78.70
9837;DHT22;4957;51.412;6.724;2023-07-29T10:19:07;29.70;78.10
9837;DHT22;4957;51.412;6.724;2023-07-29T10:21:34;29.80;77.60
9837;DHT22;4957;51.412;6.724;2023-07-29T10:24:03;30.00;76.80
9837;DHT22;4957;51.412;6.724;2023-07-29T10:26:31;30.10;76.60
9837;DHT22;4957;51.412;6.724;2023-07-29T10:28:59;30.20;75.60
9837;DHT22;4957;51.412;6.724;2023-07-29T10:31:30;30.40;75.10
9837;DHT22;4957;51.412;6.724;2023-07-29T10:33:57;30.50;74.50
9837;DHT22;4957;51.412;6.724;2023-07-29T10:36:23;30.60;73.90
9837;DHT22;4957;51.412;6.724;2023-07-29T10:38:51;30.70;73.20
9837;DHT22;4957;51.412;6.724;2023-07-29T10:41:16;30.80;73.00
9837;DHT22;4957;51.412;6.724;2023-07-29T10:43:43;30.90;72.50
9837;DHT22;4957;51.412;6.724;2023-07-29T10:46:22;31.00;71.60
9837;DHT22;4957;51.412;6.724;2023-07-29T10:51:37;31.10;70.00
9837;DHT22;4957;51.412;6.724;2023-07-29T10:54:13;31.10;69.20
9837;DHT22;4957;51.412;6.724;2023-07-29T10:56:48;31.20;69.90
9837;DHT22;4957;51.412;6.724;2023-07-29T11:01:56;31.40;69.10
9837;DHT22;4957;51.412;6.724;2023-07-29T11:04:29;31.60;67.90
9837;DHT22;4957;51.412;6.724;2023-07-29T11:12:36;31.90;65.30
9837;DHT22;4957;51.412;6.724;2023-07-29T11:17:46;32.00;65.30
9837;DHT22;4957;51.412;6.724;2023-07-29T11:20:13;32.00;64.90
9837;DHT22;4957;51.412;6.724;2023-07-29T11:22:39;32.00;64.90
9837;DHT22;4957;51.412;6.724;2023-07-29T11:25:08;32.10;64.40
9837;DHT22;4957;51.412;6.724;2023-07-29T11:27:34;32.10;63.70
9837;DHT22;4957;51.412;6.724;2023-07-29T11:30:01;32.00;63.40
9837;DHT22;4957;51.412;6.724;2023-07-29T11:32:27;32.00;63.10
9837;DHT22;4957;51.412;6.724;2023-07-29T11:34:53;32.00;63.40
9837;DHT22;4957;51.412;6.724;2023-07-29T11:37:19;32.00;63.20
9837;DHT22;4957;51.412;6.724;2023-07-29T11:39:46;32.00;63.00
9837;DHT22;4957;51.412;6.724;2023-07-29T11:42:13;32.10;62.90
9837;DHT22;4957;51.412;6.724;2023-07-29T11:44:39;32.10;62.80
9837;DHT22;4957;51.412;6.724;2023-07-29T11:47:09;32.20;62.50
9837;DHT22;4957;51.412;6.724;2023-07-29T11:49:35;32.30;61.80
9837;DHT22;4957;51.412;6.724;2023-07-29T11:52:03;32.40;61.60
9837;DHT22;4957;51.412;6.724;2023-07-29T11:54:29;32.50;60.80
9837;DHT22;4957;51.412;6.724;2023-07-29T11:56:55;32.70;60.10
9837;DHT22;4957;51.412;6.724;2023-07-29T11:59:21;32.90;59.60
9837;DHT22;4957;51.412;6.724;2023-07-29T12:01:47;32.90;59.30
9837;DHT22;4957;51.412;6.724;2023-07-29T12:04:13;33.10;58.50
9837;DHT22;4957;51.412;6.724;2023-07-29T12:06:40;33.20;57.90
9837;DHT22;4957;51.412;6.724;2023-07-29T12:09:06;33.20;58.10
9837;DHT22;4957;51.412;6.724;2023-07-29T12:11:33;33.30;57.30
9837;DHT22;4957;51.412;6.724;2023-07-29T12:14:00;33.40;56.80
9837;DHT22;4957;51.412;6.724;2023-07-29T12:16:25;33.40;56.10
9837;DHT22;4957;51.412;6.724;2023-07-29T12:18:51;33.40;55.90
9837;DHT22;4957;51.412;6.724;2023-07-29T12:21:19;33.40;55.90
9837;DHT22;4957;51.412;6.724;2023-07-29T12:23:44;33.40;55.70
9837;DHT22;4957;51.412;6.724;2023-07-29T12:26:10;33.40;55.80
9837;DHT22;4957;51.412;6.724;2023-07-29T12:28:36;33.40;55.60
9837;DHT22;4957;51.412;6.724;2023-07-29T12:31:01;33.40;55.20
9837;DHT22;4957;51.412;6.724;2023-07-29T12:33:36;33.40;54.90
9837;DHT22;4957;51.412;6.724;2023-07-29T12:36:04;33.50;55.00
9837;DHT22;4957;51.412;6.724;2023-07-29T12:38:30;33.50;55.00
9837;DHT22;4957;51.412;6.724;2023-07-29T12:40:56;33.60;55.00
9837;DHT22;4957;51.412;6.724;2023-07-29T12:43:22;33.70;55.00
9837;DHT22;4957;51.412;6.724;2023-07-29T12:45:51;33.70;54.70
9837;DHT22;4957;51.412;6.724;2023-07-29T12:48:16;33.80;54.40
9837;DHT22;4957;51.412;6.724;2023-07-29T12:50:42;33.80;54.30
9837;DHT22;4957;51.412;6.724;2023-07-29T12:53:09;33.90;53.90
9837;DHT22;4957;51.412;6.724;2023-07-29T12:55:38;33.90;53.70
9837;DHT22;4957;51.412;6.724;2023-07-29T12:58:04;33.90;53.40
9837;DHT22;4957;51.412;6.724;2023-07-29T13:00:30;33.90;53.40
9837;DHT22;4957;51.412;6.724;2023-07-29T13:02:56;33.90;53.30
9837;DHT22;4957;51.412;6.724;2023-07-29T13:05:22;33.90;53.30
9837;DHT22;4957;51.412;6.724;2023-07-29T13:07:47;33.90;53.10
9837;DHT22;4957;51.412;6.724;2023-07-29T13:10:13;33.90;53.10
9837;DHT22;4957;51.412;6.724;2023-07-29T13:12:40;33.80;52.90
9837;DHT22;4957;51.412;6.724;2023-07-29T13:15:06;33.80;52.80
9837;DHT22;4957;51.412;6.724;2023-07-29T13:17:33;33.70;52.50
9837;DHT22;4957;51.412;6.724;2023-07-29T13:19:59;33.70;52.30
9837;DHT22;4957;51.412;6.724;2023-07-29T13:22:24;33.70;52.20
9837;DHT22;4957;51.412;6.724;2023-07-29T13:24:50;33.60;52.20
9837;DHT22;4957;51.412;6.724;2023-07-29T13:27:16;33.50;51.90
9837;DHT22;4957;51.412;6.724;2023-07-29T13:29:41;33.40;51.90
9837;DHT22;4957;51.412;6.724;2023-07-29T13:32:09;33.30;52.00
9837;DHT22;4957;51.412;6.724;2023-07-29T13:34:34;33.20;51.90
9837;DHT22;4957;51.412;6.724;2023-07-29T13:37:00;33.10;52.60
9837;DHT22;4957;51.412;6.724;2023-07-29T13:39:26;33.00;54.50
9837;DHT22;4957;51.412;6.724;2023-07-29T13:41:53;32.90;56.70
9837;DHT22;4957;51.412;6.724;2023-07-29T13:44:19;32.70;58.60
9837;DHT22;4957;51.412;6.724;2023-07-29T13:46:47;32.50;60.70
9837;DHT22;4957;51.412;6.724;2023-07-29T13:49:13;32.30;62.60
9837;DHT22;4957;51.412;6.724;2023-07-29T13:51:38;32.10;63.60
9837;DHT22;4957;51.412;6.724;2023-07-29T13:54:04;31.90;64.80
9837;DHT22;4957;51.412;6.724;2023-07-29T13:56:30;31.70;66.30
9837;DHT22;4957;51.412;6.724;2023-07-29T13:58:56;31.40;67.50
9837;DHT22;4957;51.412;6.724;2023-07-29T14:01:21;31.20;68.60
9837;DHT22;4957;51.412;6.724;2023-07-29T14:03:47;30.90;69.70
9837;DHT22;4957;51.412;6.724;2023-07-29T14:06:12;30.70;70.60
9837;DHT22;4957;51.412;6.724;2023-07-29T14:08:38;30.40;71.30
9837;DHT22;4957;51.412;6.724;2023-07-29T14:11:06;30.30;72.50
9837;DHT22;4957;51.412;6.724;2023-07-29T14:13:32;30.00;73.80
9837;DHT22;4957;51.412;6.724;2023-07-29T14:15:57;29.90;75.20
9837;DHT22;4957;51.412;6.724;2023-07-29T14:18:25;29.80;76.70
9837;DHT22;4957;51.412;6.724;2023-07-29T14:20:50;29.70;78.00
9837;DHT22;4957;51.412;6.724;2023-07-29T14:23:16;29.60;78.70
9837;DHT22;4957;51.412;6.724;2023-07-29T14:25:42;29.50;79.10
9837;DHT22;4957;51.412;6.724;2023-07-29T14:28:08;29.40;80.00
9837;DHT22;4957;51.412;6.724;2023-07-29T14:30:34;29.40;80.80
9837;DHT22;4957;51.412;6.724;2023-07-29T14:33:00;29.30;81.10
9837;DHT22;4957;51.412;6.724;2023-07-29T14:35:26;29.20;81.40
9837;DHT22;4957;51.412;6.724;2023-07-29T14:37:52;29.10;81.30
9837;DHT22;4957;51.412;6.724;2023-07-29T14:40:17;29.10;81.90
9837;DHT22;4957;51.412;6.724;2023-07-29T14:42:43;29.00;82.20
9837;DHT22;4957;51.412;6.724;2023-07-29T14:45:09;28.80;82.50
9837;DHT22;4957;51.412;6.724;2023-07-29T14:47:34;28.70;82.60
9837;DHT22;4957;51.412;6.724;2023-07-29T14:50:01;28.50;83.10
9837;DHT22;4957;51.412;6.724;2023-07-29T14:52:26;28.40;84.10
9837;DHT22;4957;51.412;6.724;2023-07-29T14:54:52;28.40;84.50
9837;DHT22;4957;51.412;6.724;2023-07-29T14:57:18;28.20;84.70
9837;DHT22;4957;51.412;6.724;2023-07-29T14:59:43;28.10;85.30
9837;DHT22;4957;51.412;6.724;2023-07-29T15:02:09;28.00;85.70
9837;DHT22;4957;51.412;6.724;2023-07-29T15:04:34;27.90;86.00
9837;DHT22;4957;51.412;6.724;2023-07-29T15:07:01;27.70;86.30
9837;DHT22;4957;51.412;6.724;2023-07-29T15:09:27;27.70;86.90
9837;DHT22;4957;51.412;6.724;2023-07-29T15:11:53;27.60;87.20
9837;DHT22;4957;51.412;6.724;2023-07-29T15:14:19;27.50;88.00
9837;DHT22;4957;51.412;6.724;2023-07-29T15:16:44;27.40;88.50
9837;DHT22;4957;51.412;6.724;2023-07-29T15:19:10;27.30;89.50
9837;DHT22;4957;51.412;6.724;2023-07-29T15:21:35;27.20;90.00
9837;DHT22;4957;51.412;6.724;2023-07-29T15:24:01;27.20;90.50
9837;DHT22;4957;51.412;6.724;2023-07-29T15:26:27;27.10;90.90
9837;DHT22;4957;51.412;6.724;2023-07-29T15:28:53;27.00;91.20
9837;DHT22;4957;51.412;6.724;2023-07-29T15:31:19;27.00;91.40
9837;DHT22;4957;51.412;6.724;2023-07-29T15:33:44;27.00;91.40
9837;DHT22;4957;51.412;6.724;2023-07-29T15:36:10;27.00;91.60
9837;DHT22;4957;51.412;6.724;2023-07-29T15:38:36;27.00;91.60
9837;DHT22;4957;51.412;6.724;2023-07-29T15:41:02;27.00;91.60
9837;DHT22;4957;51.412;6.724;2023-07-29T15:43:27;27.00;91.20
9837;DHT22;4957;51.412;6.724;2023-07-29T15:45:53;27.00;91.40
9837;DHT22;4957;51.412;6.724;2023-07-29T15:48:19;27.00;91.20
9837;DHT22;4957;51.412;6.724;2023-07-29T15:50:45;27.00;91.00
9837;DHT22;4957;51.412;6.724;2023-07-29T15:53:11;26.90;90.80
9837;DHT22;4957;51.412;6.724;2023-07-29T15:55:36;26.90;90.80
9837;DHT22;4957;51.412;6.724;2023-07-29T15:58:02;26.90;90.60
9837;DHT22;4957;51.412;6.724;2023-07-29T16:00:27;26.90;90.50
9837;DHT22;4957;51.412;6.724;2023-07-29T16:02:54;26.90;90.50
9837;DHT22;4957;51.412;6.724;2023-07-29T16:05:20;26.80;90.40
9837;DHT22;4957;51.412;6.724;2023-07-29T16:07:45;26.80;90.40
9837;DHT22;4957;51.412;6.724;2023-07-29T16:10:11;26.80;90.30
9837;DHT22;4957;51.412;6.724;2023-07-29T16:12:36;26.80;90.20